Jimmy Lake, Canada
Current Conditions -  °F | °C
As of 4:00 AM on Friday 31 Oct 2014 (Local Time) from CWHN Reporting Station
Overcast Overcast  
Wind Chill: 22°   Ceiling: 700
Heat Index: 32°   Visibility: 9mi
Dew Point: 28°   Wind: 15mph
Humidity: 87%   Direction: 160°SSE
Pressure: 29.9"   Gusts: 22mph
Location:  54.9°N, 109.97°W
Report Text: CWHN 311000Z AUTO 16013G19KT 9SM OVC007 M00/M02 A2990 RMKSLP158
Loading
Personal Weather Stations






























Interactive Weather Map
Tropical Storm Tracking
New forecast layout! Learn more

10-Day Weather Forecast

Advertisements
Track Severe Weather on mobile